Terminal Aerodrome Forecast
Issued by NWS

Home | Current Version | Previous Version | Text Only | Print | Product List | Glossary On
Versions: 1 2 3 4 5 6 7 8 9 10 11 12
200
FTUS41 KILN 261745
TAFLCK
TAF
KLCK 261745Z 2618/2718 17012G20KT P6SM SCT240
     FM270000 16007KT P6SM SKC
     FM270500 16008KT P6SM SCT250 WS020/19040KT
     FM271200 17012KT P6SM BKN200
     FM271400 18015G23KT P6SM VCSH SCT040 OVC080
     FM271700 21014G22KT P6SM OVC035=

USA.gov is the U.S. government's official web portal to all federal, state and local government web resources and services.